sensor_id;sensor_type;location;lat;lon;timestamp;temperature;humidity
32173;DHT22;18679;45.190;5.722;2023-06-19T00:03:00;27.20;41.10
32173;DHT22;18679;45.190;5.722;2023-06-19T00:06:01;27.20;41.00
32173;DHT22;18679;45.190;5.722;2023-06-19T00:09:02;27.10;41.00
32173;DHT22;18679;45.190;5.722;2023-06-19T00:12:03;27.00;41.10
32173;DHT22;18679;45.190;5.722;2023-06-19T00:15:05;27.00;41.20
32173;DHT22;18679;45.190;5.722;2023-06-19T00:18:06;27.00;41.20
32173;DHT22;18679;45.190;5.722;2023-06-19T00:21:08;26.90;41.50
32173;DHT22;18679;45.190;5.722;2023-06-19T00:24:09;26.90;41.60
32173;DHT22;18679;45.190;5.722;2023-06-19T00:27:11;26.90;41.50
32173;DHT22;18679;45.190;5.722;2023-06-19T00:30:12;27.00;41.50
32173;DHT22;18679;45.190;5.722;2023-06-19T00:33:13;27.00;41.40
32173;DHT22;18679;45.190;5.722;2023-06-19T00:36:15;27.10;41.40
32173;DHT22;18679;45.190;5.722;2023-06-19T00:39:17;27.10;41.50
32173;DHT22;18679;45.190;5.722;2023-06-19T00:42:17;27.00;41.60
32173;DHT22;18679;45.190;5.722;2023-06-19T00:45:20;27.00;41.90
32173;DHT22;18679;45.190;5.722;2023-06-19T00:48:21;26.90;42.10
32173;DHT22;18679;45.190;5.722;2023-06-19T00:51:21;26.80;42.20
32173;DHT22;18679;45.190;5.722;2023-06-19T00:54:22;26.80;42.40
32173;DHT22;18679;45.190;5.722;2023-06-19T00:57:23;26.80;42.40
32173;DHT22;18679;45.190;5.722;2023-06-19T01:00:24;26.80;42.50
32173;DHT22;18679;45.190;5.722;2023-06-19T01:03:25;26.70;42.50
32173;DHT22;18679;45.190;5.722;2023-06-19T01:06:30;26.80;42.60
32173;DHT22;18679;45.190;5.722;2023-06-19T01:09:48;26.80;42.50
32173;DHT22;18679;45.190;5.722;2023-06-19T01:12:58;26.90;42.60
32173;DHT22;18679;45.190;5.722;2023-06-19T01:16:01;26.80;42.50
32173;DHT22;18679;45.190;5.722;2023-06-19T01:19:04;26.90;42.70
32173;DHT22;18679;45.190;5.722;2023-06-19T01:22:07;26.90;42.70
32173;DHT22;18679;45.190;5.722;2023-06-19T01:25:09;26.90;42.60
32173;DHT22;18679;45.190;5.722;2023-06-19T01:28:12;27.00;42.60
32173;DHT22;18679;45.190;5.722;2023-06-19T01:31:17;26.90;42.70
32173;DHT22;18679;45.190;5.722;2023-06-19T01:34:20;26.80;43.00
32173;DHT22;18679;45.190;5.722;2023-06-19T01:37:21;26.80;43.20
32173;DHT22;18679;45.190;5.722;2023-06-19T01:40:24;26.80;43.30
32173;DHT22;18679;45.190;5.722;2023-06-19T01:43:30;26.80;43.80
32173;DHT22;18679;45.190;5.722;2023-06-19T01:46:32;26.90;43.30
32173;DHT22;18679;45.190;5.722;2023-06-19T01:49:33;26.80;43.20
32173;DHT22;18679;45.190;5.722;2023-06-19T01:52:38;26.80;43.40
32173;DHT22;18679;45.190;5.722;2023-06-19T01:55:40;26.70;43.60
32173;DHT22;18679;45.190;5.722;2023-06-19T01:58:41;26.70;43.70
32173;DHT22;18679;45.190;5.722;2023-06-19T02:01:42;26.60;43.70
32173;DHT22;18679;45.190;5.722;2023-06-19T02:04:44;26.50;43.80
32173;DHT22;18679;45.190;5.722;2023-06-19T02:07:45;26.60;43.80
32173;DHT22;18679;45.190;5.722;2023-06-19T02:10:45;26.60;43.80
32173;DHT22;18679;45.190;5.722;2023-06-19T02:13:46;26.50;43.80
32173;DHT22;18679;45.190;5.722;2023-06-19T02:16:47;26.60;44.00
32173;DHT22;18679;45.190;5.722;2023-06-19T02:19:48;26.50;44.00
32173;DHT22;18679;45.190;5.722;2023-06-19T02:22:49;26.50;44.10
32173;DHT22;18679;45.190;5.722;2023-06-19T02:25:50;26.50;44.20
32173;DHT22;18679;45.190;5.722;2023-06-19T02:28:51;26.50;44.30
32173;DHT22;18679;45.190;5.722;2023-06-19T02:31:52;26.40;44.40
32173;DHT22;18679;45.190;5.722;2023-06-19T02:34:53;26.40;44.60
32173;DHT22;18679;45.190;5.722;2023-06-19T02:37:54;26.40;44.70
32173;DHT22;18679;45.190;5.722;2023-06-19T02:40:55;26.30;44.70
32173;DHT22;18679;45.190;5.722;2023-06-19T02:43:58;26.30;44.90
32173;DHT22;18679;45.190;5.722;2023-06-19T02:46:58;26.20;44.90
32173;DHT22;18679;45.190;5.722;2023-06-19T02:50:00;26.30;44.90
32173;DHT22;18679;45.190;5.722;2023-06-19T02:53:01;26.30;44.90
32173;DHT22;18679;45.190;5.722;2023-06-19T02:56:03;26.30;44.90
32173;DHT22;18679;45.190;5.722;2023-06-19T02:59:05;26.30;44.90
32173;DHT22;18679;45.190;5.722;2023-06-19T03:02:06;26.30;45.00
32173;DHT22;18679;45.190;5.722;2023-06-19T03:05:09;26.20;45.30
32173;DHT22;18679;45.190;5.722;2023-06-19T03:08:10;26.10;45.40
32173;DHT22;18679;45.190;5.722;2023-06-19T03:11:11;26.10;45.70
32173;DHT22;18679;45.190;5.722;2023-06-19T03:14:12;26.10;45.80
32173;DHT22;18679;45.190;5.722;2023-06-19T03:17:13;26.00;45.80
32173;DHT22;18679;45.190;5.722;2023-06-19T03:20:14;25.90;46.00
32173;DHT22;18679;45.190;5.722;2023-06-19T03:23:22;25.90;46.20
32173;DHT22;18679;45.190;5.722;2023-06-19T03:26:23;25.80;46.20
32173;DHT22;18679;45.190;5.722;2023-06-19T03:29:26;25.80;46.30
32173;DHT22;18679;45.190;5.722;2023-06-19T03:32:35;25.80;46.70
32173;DHT22;18679;45.190;5.722;2023-06-19T03:35:36;25.70;46.90
32173;DHT22;18679;45.190;5.722;2023-06-19T03:38:38;25.60;47.10
32173;DHT22;18679;45.190;5.722;2023-06-19T03:41:39;25.60;47.20
32173;DHT22;18679;45.190;5.722;2023-06-19T03:44:40;25.70;47.10
32173;DHT22;18679;45.190;5.722;2023-06-19T03:47:41;25.70;47.00
32173;DHT22;18679;45.190;5.722;2023-06-19T03:50:42;25.70;47.00
32173;DHT22;18679;45.190;5.722;2023-06-19T03:53:43;25.70;47.00
32173;DHT22;18679;45.190;5.722;2023-06-19T03:56:44;25.80;46.90
32173;DHT22;18679;45.190;5.722;2023-06-19T03:59:44;25.80;46.70
32173;DHT22;18679;45.190;5.722;2023-06-19T04:02:46;25.90;46.60
32173;DHT22;18679;45.190;5.722;2023-06-19T04:05:47;26.00;46.60
32173;DHT22;18679;45.190;5.722;2023-06-19T04:08:48;25.90;46.50
32173;DHT22;18679;45.190;5.722;2023-06-19T04:11:49;25.90;46.60
32173;DHT22;18679;45.190;5.722;2023-06-19T04:14:49;25.90;46.60
32173;DHT22;18679;45.190;5.722;2023-06-19T04:17:50;25.90;46.60
32173;DHT22;18679;45.190;5.722;2023-06-19T04:20:51;25.80;46.70
32173;DHT22;18679;45.190;5.722;2023-06-19T04:23:52;25.80;46.60
32173;DHT22;18679;45.190;5.722;2023-06-19T04:26:53;25.80;46.60
32173;DHT22;18679;45.190;5.722;2023-06-19T04:29:56;25.90;46.80
32173;DHT22;18679;45.190;5.722;2023-06-19T04:32:58;25.90;46.70
32173;DHT22;18679;45.190;5.722;2023-06-19T04:35:59;26.00;46.60
32173;DHT22;18679;45.190;5.722;2023-06-19T04:39:01;26.00;46.60
32173;DHT22;18679;45.190;5.722;2023-06-19T04:42:02;25.90;46.60
32173;DHT22;18679;45.190;5.722;2023-06-19T04:45:03;25.90;46.60
32173;DHT22;18679;45.190;5.722;2023-06-19T04:48:07;25.90;46.70
32173;DHT22;18679;45.190;5.722;2023-06-19T04:51:08;25.90;46.80
32173;DHT22;18679;45.190;5.722;2023-06-19T04:54:09;26.00;46.80
32173;DHT22;18679;45.190;5.722;2023-06-19T04:57:10;25.90;46.80
32173;DHT22;18679;45.190;5.722;2023-06-19T05:00:11;25.90;46.80
32173;DHT22;18679;45.190;5.722;2023-06-19T05:03:13;25.90;47.00
32173;DHT22;18679;45.190;5.722;2023-06-19T05:06:14;26.00;46.90
32173;DHT22;18679;45.190;5.722;2023-06-19T05:09:16;26.00;46.80
32173;DHT22;18679;45.190;5.722;2023-06-19T05:12:17;25.90;46.80
32173;DHT22;18679;45.190;5.722;2023-06-19T05:15:18;26.00;46.80
32173;DHT22;18679;45.190;5.722;2023-06-19T05:18:19;26.00;46.70
32173;DHT22;18679;45.190;5.722;2023-06-19T05:21:20;26.00;46.80
32173;DHT22;18679;45.190;5.722;2023-06-19T05:24:21;26.00;46.80
32173;DHT22;18679;45.190;5.722;2023-06-19T05:27:22;26.10;46.70
32173;DHT22;18679;45.190;5.722;2023-06-19T05:30:23;26.20;46.50
32173;DHT22;18679;45.190;5.722;2023-06-19T05:33:24;26.20;46.50
32173;DHT22;18679;45.190;5.722;2023-06-19T05:36:25;26.20;46.50
32173;DHT22;18679;45.190;5.722;2023-06-19T05:39:26;26.30;46.60
32173;DHT22;18679;45.190;5.722;2023-06-19T05:42:27;26.30;46.60
32173;DHT22;18679;45.190;5.722;2023-06-19T05:45:27;26.40;46.50
32173;DHT22;18679;45.190;5.722;2023-06-19T05:48:31;26.40;46.50
32173;DHT22;18679;45.190;5.722;2023-06-19T05:51:31;26.40;46.40
32173;DHT22;18679;45.190;5.722;2023-06-19T05:54:32;26.40;46.50
32173;DHT22;18679;45.190;5.722;2023-06-19T05:57:33;26.40;46.60
32173;DHT22;18679;45.190;5.722;2023-06-19T06:00:34;26.30;46.70
32173;DHT22;18679;45.190;5.722;2023-06-19T06:03:35;26.30;46.90
32173;DHT22;18679;45.190;5.722;2023-06-19T06:06:36;26.20;46.90
32173;DHT22;18679;45.190;5.722;2023-06-19T06:09:37;26.20;47.00
32173;DHT22;18679;45.190;5.722;2023-06-19T06:12:38;26.30;47.00
32173;DHT22;18679;45.190;5.722;2023-06-19T06:15:39;26.30;46.90
32173;DHT22;18679;45.190;5.722;2023-06-19T06:18:40;26.40;46.70
32173;DHT22;18679;45.190;5.722;2023-06-19T06:21:41;26.60;46.50
32173;DHT22;18679;45.190;5.722;2023-06-19T06:24:41;26.70;46.30
32173;DHT22;18679;45.190;5.722;2023-06-19T06:27:42;26.80;46.20
32173;DHT22;18679;45.190;5.722;2023-06-19T06:30:43;26.80;46.00
32173;DHT22;18679;45.190;5.722;2023-06-19T06:33:44;26.90;46.00
32173;DHT22;18679;45.190;5.722;2023-06-19T06:36:45;26.80;46.10
32173;DHT22;18679;45.190;5.722;2023-06-19T06:39:46;26.70;46.20
32173;DHT22;18679;45.190;5.722;2023-06-19T06:42:47;26.50;46.50
32173;DHT22;18679;45.190;5.722;2023-06-19T06:45:50;26.40;46.70
32173;DHT22;18679;45.190;5.722;2023-06-19T06:48:51;26.40;46.80
32173;DHT22;18679;45.190;5.722;2023-06-19T06:51:52;26.40;46.90
32173;DHT22;18679;45.190;5.722;2023-06-19T06:54:53;26.40;47.10
32173;DHT22;18679;45.190;5.722;2023-06-19T06:57:54;26.30;47.50
32173;DHT22;18679;45.190;5.722;2023-06-19T07:00:58;26.30;48.10
32173;DHT22;18679;45.190;5.722;2023-06-19T07:03:58;26.30;48.30
32173;DHT22;18679;45.190;5.722;2023-06-19T07:06:59;26.30;48.20
32173;DHT22;18679;45.190;5.722;2023-06-19T07:10:00;26.20;48.20
32173;DHT22;18679;45.190;5.722;2023-06-19T07:13:01;26.20;48.30
32173;DHT22;18679;45.190;5.722;2023-06-19T07:16:02;26.10;48.60
32173;DHT22;18679;45.190;5.722;2023-06-19T07:19:05;26.10;48.40
32173;DHT22;18679;45.190;5.722;2023-06-19T07:22:06;26.10;48.50
32173;DHT22;18679;45.190;5.722;2023-06-19T07:25:07;26.10;48.90
32173;DHT22;18679;45.190;5.722;2023-06-19T07:28:09;26.00;49.10
32173;DHT22;18679;45.190;5.722;2023-06-19T07:31:10;26.10;49.20
32173;DHT22;18679;45.190;5.722;2023-06-19T07:34:11;26.10;49.30
32173;DHT22;18679;45.190;5.722;2023-06-19T07:37:12;26.10;49.70
32173;DHT22;18679;45.190;5.722;2023-06-19T07:40:18;26.10;50.00
32173;DHT22;18679;45.190;5.722;2023-06-19T07:43:18;26.20;50.10
32173;DHT22;18679;45.190;5.722;2023-06-19T07:46:19;26.30;50.20
32173;DHT22;18679;45.190;5.722;2023-06-19T07:49:20;26.40;50.30
32173;DHT22;18679;45.190;5.722;2023-06-19T07:52:21;26.40;50.20
32173;DHT22;18679;45.190;5.722;2023-06-19T07:55:22;26.40;50.30
32173;DHT22;18679;45.190;5.722;2023-06-19T07:58:23;26.50;50.30
32173;DHT22;18679;45.190;5.722;2023-06-19T08:01:24;26.50;50.40
32173;DHT22;18679;45.190;5.722;2023-06-19T08:04:25;26.60;49.80
32173;DHT22;18679;45.190;5.722;2023-06-19T08:07:26;26.80;50.40
32173;DHT22;18679;45.190;5.722;2023-06-19T08:10:27;26.80;50.30
32173;DHT22;18679;45.190;5.722;2023-06-19T08:13:27;26.90;50.10
32173;DHT22;18679;45.190;5.722;2023-06-19T08:16:28;26.80;50.00
32173;DHT22;18679;45.190;5.722;2023-06-19T08:19:29;26.80;50.00
32173;DHT22;18679;45.190;5.722;2023-06-19T08:22:30;26.80;50.00
32173;DHT22;18679;45.190;5.722;2023-06-19T08:25:31;26.80;50.00
32173;DHT22;18679;45.190;5.722;2023-06-19T08:28:32;26.80;49.90
32173;DHT22;18679;45.190;5.722;2023-06-19T08:31:33;26.90;49.70
32173;DHT22;18679;45.190;5.722;2023-06-19T08:34:35;27.00;49.40
32173;DHT22;18679;45.190;5.722;2023-06-19T08:37:36;27.10;49.20
32173;DHT22;18679;45.190;5.722;2023-06-19T08:40:37;27.20;48.80
32173;DHT22;18679;45.190;5.722;2023-06-19T08:43:38;27.30;48.30
32173;DHT22;18679;45.190;5.722;2023-06-19T08:46:41;27.40;48.10
32173;DHT22;18679;45.190;5.722;2023-06-19T08:49:42;27.50;48.00
32173;DHT22;18679;45.190;5.722;2023-06-19T08:52:43;27.50;48.10
32173;DHT22;18679;45.190;5.722;2023-06-19T08:55:45;27.50;48.10
32173;DHT22;18679;45.190;5.722;2023-06-19T08:58:46;27.60;48.20
32173;DHT22;18679;45.190;5.722;2023-06-19T09:01:52;27.60;48.20
32173;DHT22;18679;45.190;5.722;2023-06-19T09:05:10;27.70;48.10
32173;DHT22;18679;45.190;5.722;2023-06-19T09:08:13;27.70;48.10
32173;DHT22;18679;45.190;5.722;2023-06-19T09:11:18;27.70;48.10
32173;DHT22;18679;45.190;5.722;2023-06-19T09:14:30;27.70;48.00
32173;DHT22;18679;45.190;5.722;2023-06-19T09:17:31;27.80;47.60
32173;DHT22;18679;45.190;5.722;2023-06-19T09:20:42;27.90;47.40
32173;DHT22;18679;45.190;5.722;2023-06-19T09:23:46;28.00;47.10
32173;DHT22;18679;45.190;5.722;2023-06-19T09:26:47;28.20;46.40
32173;DHT22;18679;45.190;5.722;2023-06-19T09:29:50;28.20;46.00
32173;DHT22;18679;45.190;5.722;2023-06-19T09:32:51;28.40;46.60
32173;DHT22;18679;45.190;5.722;2023-06-19T09:35:54;28.50;46.00
32173;DHT22;18679;45.190;5.722;2023-06-19T09:38:56;28.60;46.00
32173;DHT22;18679;45.190;5.722;2023-06-19T09:41:58;28.80;45.80
32173;DHT22;18679;45.190;5.722;2023-06-19T09:45:02;29.00;45.40
32173;DHT22;18679;45.190;5.722;2023-06-19T09:48:06;29.30;44.90
32173;DHT22;18679;45.190;5.722;2023-06-19T09:51:34;29.60;44.40
32173;DHT22;18679;45.190;5.722;2023-06-19T09:54:38;29.90;43.80
32173;DHT22;18679;45.190;5.722;2023-06-19T09:57:41;30.00;43.10
32173;DHT22;18679;45.190;5.722;2023-06-19T10:00:42;30.20;43.00
32173;DHT22;18679;45.190;5.722;2023-06-19T10:03:45;30.20;42.30
32173;DHT22;18679;45.190;5.722;2023-06-19T10:06:46;30.20;42.30
32173;DHT22;18679;45.190;5.722;2023-06-19T10:10:05;30.20;42.40
32173;DHT22;18679;45.190;5.722;2023-06-19T10:13:15;30.20;42.00
32173;DHT22;18679;45.190;5.722;2023-06-19T10:16:23;30.20;41.80
32173;DHT22;18679;45.190;5.722;2023-06-19T10:19:24;30.20;41.70
32173;DHT22;18679;45.190;5.722;2023-06-19T10:22:30;30.20;41.70
32173;DHT22;18679;45.190;5.722;2023-06-19T10:25:34;30.20;41.40
32173;DHT22;18679;45.190;5.722;2023-06-19T10:28:35;30.10;41.20
32173;DHT22;18679;45.190;5.722;2023-06-19T10:31:36;30.10;41.30
32173;DHT22;18679;45.190;5.722;2023-06-19T10:34:36;30.10;41.00
32173;DHT22;18679;45.190;5.722;2023-06-19T10:37:37;30.00;41.10
32173;DHT22;18679;45.190;5.722;2023-06-19T10:40:38;30.00;41.40
32173;DHT22;18679;45.190;5.722;2023-06-19T10:43:40;30.10;41.60
32173;DHT22;18679;45.190;5.722;2023-06-19T10:46:41;30.20;41.70
32173;DHT22;18679;45.190;5.722;2023-06-19T10:49:42;30.30;41.80
32173;DHT22;18679;45.190;5.722;2023-06-19T10:52:44;30.40;41.80
32173;DHT22;18679;45.190;5.722;2023-06-19T10:55:45;30.50;41.70
32173;DHT22;18679;45.190;5.722;2023-06-19T10:58:45;30.60;41.50
32173;DHT22;18679;45.190;5.722;2023-06-19T11:01:48;30.60;41.50
32173;DHT22;18679;45.190;5.722;2023-06-19T11:04:52;30.50;41.60
32173;DHT22;18679;45.190;5.722;2023-06-19T11:07:55;30.60;41.40
32173;DHT22;18679;45.190;5.722;2023-06-19T11:10:56;31.50;40.30
32173;DHT22;18679;45.190;5.722;2023-06-19T11:13:56;32.50;38.90
32173;DHT22;18679;45.190;5.722;2023-06-19T11:16:57;33.10;37.50
32173;DHT22;18679;45.190;5.722;2023-06-19T11:19:58;33.50;36.50
32173;DHT22;18679;45.190;5.722;2023-06-19T11:23:01;33.90;35.80
32173;DHT22;18679;45.190;5.722;2023-06-19T11:26:03;34.40;35.10
32173;DHT22;18679;45.190;5.722;2023-06-19T11:29:18;34.90;34.10
32173;DHT22;18679;45.190;5.722;2023-06-19T11:32:21;35.10;33.60
32173;DHT22;18679;45.190;5.722;2023-06-19T11:35:31;35.10;32.90
32173;DHT22;18679;45.190;5.722;2023-06-19T11:38:36;35.30;32.20
32173;DHT22;18679;45.190;5.722;2023-06-19T11:41:39;35.60;31.90
32173;DHT22;18679;45.190;5.722;2023-06-19T11:45:00;36.10;31.10
32173;DHT22;18679;45.190;5.722;2023-06-19T11:48:07;36.50;30.00
32173;DHT22;18679;45.190;5.722;2023-06-19T11:51:09;36.70;29.30
32173;DHT22;18679;45.190;5.722;2023-06-19T11:54:11;36.90;28.80
32173;DHT22;18679;45.190;5.722;2023-06-19T11:57:12;37.30;28.10
32173;DHT22;18679;45.190;5.722;2023-06-19T12:00:15;37.50;27.80
32173;DHT22;18679;45.190;5.722;2023-06-19T12:03:16;37.70;27.40
32173;DHT22;18679;45.190;5.722;2023-06-19T12:06:17;37.80;27.60
32173;DHT22;18679;45.190;5.722;2023-06-19T12:09:20;38.10;27.40
32173;DHT22;18679;45.190;5.722;2023-06-19T12:12:21;38.60;27.00
32173;DHT22;18679;45.190;5.722;2023-06-19T12:15:23;38.90;26.50
32173;DHT22;18679;45.190;5.722;2023-06-19T12:18:25;39.10;26.30
32173;DHT22;18679;45.190;5.722;2023-06-19T12:21:26;39.60;26.20
32173;DHT22;18679;45.190;5.722;2023-06-19T12:24:27;39.90;25.90
32173;DHT22;18679;45.190;5.722;2023-06-19T12:27:27;40.10;25.40
32173;DHT22;18679;45.190;5.722;2023-06-19T12:30:28;40.20;25.40
32173;DHT22;18679;45.190;5.722;2023-06-19T12:33:30;40.20;25.20
32173;DHT22;18679;45.190;5.722;2023-06-19T12:36:34;40.30;25.30
32173;DHT22;18679;45.190;5.722;2023-06-19T12:39:35;40.50;25.00
32173;DHT22;18679;45.190;5.722;2023-06-19T12:42:36;40.70;24.90
32173;DHT22;18679;45.190;5.722;2023-06-19T12:45:37;40.80;24.70
32173;DHT22;18679;45.190;5.722;2023-06-19T12:48:38;40.90;24.40
32173;DHT22;18679;45.190;5.722;2023-06-19T12:51:39;41.00;24.30
32173;DHT22;18679;45.190;5.722;2023-06-19T12:54:40;41.00;24.20
32173;DHT22;18679;45.190;5.722;2023-06-19T12:57:42;41.10;24.20
32173;DHT22;18679;45.190;5.722;2023-06-19T13:00:45;41.10;23.90
32173;DHT22;18679;45.190;5.722;2023-06-19T13:03:46;40.50;24.40
32173;DHT22;18679;45.190;5.722;2023-06-19T13:06:47;39.60;25.10
32173;DHT22;18679;45.190;5.722;2023-06-19T13:09:50;38.90;25.70
32173;DHT22;18679;45.190;5.722;2023-06-19T13:12:51;38.40;26.10
32173;DHT22;18679;45.190;5.722;2023-06-19T13:15:52;38.10;26.40
32173;DHT22;18679;45.190;5.722;2023-06-19T13:18:52;38.30;26.40
32173;DHT22;18679;45.190;5.722;2023-06-19T13:21:53;38.90;25.80
32173;DHT22;18679;45.190;5.722;2023-06-19T13:24:54;38.90;25.70
32173;DHT22;18679;45.190;5.722;2023-06-19T13:27:55;39.00;25.60
32173;DHT22;18679;45.190;5.722;2023-06-19T13:30:56;39.70;25.10
32173;DHT22;18679;45.190;5.722;2023-06-19T13:33:57;40.50;24.50
32173;DHT22;18679;45.190;5.722;2023-06-19T13:36:59;40.90;24.10
32173;DHT22;18679;45.190;5.722;2023-06-19T13:40:00;41.00;24.10
32173;DHT22;18679;45.190;5.722;2023-06-19T13:43:01;41.20;23.90
32173;DHT22;18679;45.190;5.722;2023-06-19T13:46:04;40.80;24.10
32173;DHT22;18679;45.190;5.722;2023-06-19T13:49:06;40.50;24.40
32173;DHT22;18679;45.190;5.722;2023-06-19T13:52:07;40.90;23.90
32173;DHT22;18679;45.190;5.722;2023-06-19T13:55:08;40.70;23.90
32173;DHT22;18679;45.190;5.722;2023-06-19T13:58:09;39.90;24.50
32173;DHT22;18679;45.190;5.722;2023-06-19T14:01:10;39.30;25.20
32173;DHT22;18679;45.190;5.722;2023-06-19T14:04:11;39.80;25.00
32173;DHT22;18679;45.190;5.722;2023-06-19T14:07:12;41.20;23.90
32173;DHT22;18679;45.190;5.722;2023-06-19T14:10:13;42.90;22.80
32173;DHT22;18679;45.190;5.722;2023-06-19T14:13:14;44.10;21.80
32173;DHT22;18679;45.190;5.722;2023-06-19T14:16:15;45.10;21.00
32173;DHT22;18679;45.190;5.722;2023-06-19T14:19:16;45.90;20.30
32173;DHT22;18679;45.190;5.722;2023-06-19T14:22:17;46.50;19.60
32173;DHT22;18679;45.190;5.722;2023-06-19T14:25:18;46.90;19.20
32173;DHT22;18679;45.190;5.722;2023-06-19T14:28:19;47.20;19.70
32173;DHT22;18679;45.190;5.722;2023-06-19T14:31:20;47.20;19.00
32173;DHT22;18679;45.190;5.722;2023-06-19T14:34:22;47.20;18.80
32173;DHT22;18679;45.190;5.722;2023-06-19T14:37:23;47.10;18.80
32173;DHT22;18679;45.190;5.722;2023-06-19T14:40:24;47.00;18.70
32173;DHT22;18679;45.190;5.722;2023-06-19T14:43:25;46.90;18.50
32173;DHT22;18679;45.190;5.722;2023-06-19T14:46:26;46.40;18.60
32173;DHT22;18679;45.190;5.722;2023-06-19T14:49:28;45.90;18.90
32173;DHT22;18679;45.190;5.722;2023-06-19T14:52:28;45.60;19.10
32173;DHT22;18679;45.190;5.722;2023-06-19T14:55:30;45.50;19.20
32173;DHT22;18679;45.190;5.722;2023-06-19T14:58:31;45.50;19.00
32173;DHT22;18679;45.190;5.722;2023-06-19T15:01:33;45.60;19.00
32173;DHT22;18679;45.190;5.722;2023-06-19T15:04:34;45.60;18.70
32173;DHT22;18679;45.190;5.722;2023-06-19T15:07:35;45.40;18.70
32173;DHT22;18679;45.190;5.722;2023-06-19T15:10:36;45.20;18.90
32173;DHT22;18679;45.190;5.722;2023-06-19T15:13:37;45.00;19.10
32173;DHT22;18679;45.190;5.722;2023-06-19T15:16:38;44.80;19.20
32173;DHT22;18679;45.190;5.722;2023-06-19T15:19:40;44.60;19.30
32173;DHT22;18679;45.190;5.722;2023-06-19T15:22:41;44.30;19.50
32173;DHT22;18679;45.190;5.722;2023-06-19T15:25:42;44.10;19.70
32173;DHT22;18679;45.190;5.722;2023-06-19T15:28:43;43.90;19.80
32173;DHT22;18679;45.190;5.722;2023-06-19T15:31:45;43.60;20.00
32173;DHT22;18679;45.190;5.722;2023-06-19T15:34:47;43.40;20.20
32173;DHT22;18679;45.190;5.722;2023-06-19T15:37:48;43.00;20.40
32173;DHT22;18679;45.190;5.722;2023-06-19T15:40:49;42.70;20.60
32173;DHT22;18679;45.190;5.722;2023-06-19T15:43:50;42.20;21.00
32173;DHT22;18679;45.190;5.722;2023-06-19T15:46:51;41.70;21.50
32173;DHT22;18679;45.190;5.722;2023-06-19T15:49:52;41.10;22.00
32173;DHT22;18679;45.190;5.722;2023-06-19T15:52:53;40.50;22.30
32173;DHT22;18679;45.190;5.722;2023-06-19T15:55:54;39.90;22.90
32173;DHT22;18679;45.190;5.722;2023-06-19T15:58:56;39.30;23.50
32173;DHT22;18679;45.190;5.722;2023-06-19T16:01:57;38.80;23.90
32173;DHT22;18679;45.190;5.722;2023-06-19T16:04:57;39.00;23.90
32173;DHT22;18679;45.190;5.722;2023-06-19T16:07:58;39.80;23.30
32173;DHT22;18679;45.190;5.722;2023-06-19T16:10:59;40.50;22.60
32173;DHT22;18679;45.190;5.722;2023-06-19T16:14:00;40.90;22.20
32173;DHT22;18679;45.190;5.722;2023-06-19T16:17:01;40.50;22.60
32173;DHT22;18679;45.190;5.722;2023-06-19T16:20:03;39.90;23.30
32173;DHT22;18679;45.190;5.722;2023-06-19T16:23:04;39.30;23.80
32173;DHT22;18679;45.190;5.722;2023-06-19T16:26:05;38.70;24.50
32173;DHT22;18679;45.190;5.722;2023-06-19T16:29:08;38.00;25.30
32173;DHT22;18679;45.190;5.722;2023-06-19T16:32:09;37.80;25.60
32173;DHT22;18679;45.190;5.722;2023-06-19T16:35:10;38.20;25.30
32173;DHT22;18679;45.190;5.722;2023-06-19T16:38:11;38.30;25.20
32173;DHT22;18679;45.190;5.722;2023-06-19T16:41:12;38.60;25.20
32173;DHT22;18679;45.190;5.722;2023-06-19T16:44:13;38.80;25.00
32173;DHT22;18679;45.190;5.722;2023-06-19T16:47:14;38.90;24.90
32173;DHT22;18679;45.190;5.722;2023-06-19T16:50:15;38.70;25.00
32173;DHT22;18679;45.190;5.722;2023-06-19T16:53:16;38.40;25.40
32173;DHT22;18679;45.190;5.722;2023-06-19T16:56:17;38.00;25.70
32173;DHT22;18679;45.190;5.722;2023-06-19T16:59:18;37.40;26.40
32173;DHT22;18679;45.190;5.722;2023-06-19T17:02:19;36.90;26.90
32173;DHT22;18679;45.190;5.722;2023-06-19T17:05:21;36.30;27.40
32173;DHT22;18679;45.190;5.722;2023-06-19T17:08:22;35.80;28.00
32173;DHT22;18679;45.190;5.722;2023-06-19T17:11:23;35.50;28.20
32173;DHT22;18679;45.190;5.722;2023-06-19T17:14:27;35.10;28.20
32173;DHT22;18679;45.190;5.722;2023-06-19T17:17:28;34.80;28.60
32173;DHT22;18679;45.190;5.722;2023-06-19T17:20:29;34.60;28.90
32173;DHT22;18679;45.190;5.722;2023-06-19T17:23:29;34.40;29.80
32173;DHT22;18679;45.190;5.722;2023-06-19T17:26:30;34.20;29.60
32173;DHT22;18679;45.190;5.722;2023-06-19T17:29:32;34.00;30.00
32173;DHT22;18679;45.190;5.722;2023-06-19T17:32:33;33.80;30.30
32173;DHT22;18679;45.190;5.722;2023-06-19T17:35:35;33.60;30.70
32173;DHT22;18679;45.190;5.722;2023-06-19T17:38:36;33.50;31.10
32173;DHT22;18679;45.190;5.722;2023-06-19T17:41:37;33.30;31.20
32173;DHT22;18679;45.190;5.722;2023-06-19T17:44:38;33.20;31.30
32173;DHT22;18679;45.190;5.722;2023-06-19T17:47:40;33.10;31.70
32173;DHT22;18679;45.190;5.722;2023-06-19T17:50:41;33.10;32.00
32173;DHT22;18679;45.190;5.722;2023-06-19T17:53:42;33.00;32.00
32173;DHT22;18679;45.190;5.722;2023-06-19T17:56:44;33.00;32.20
32173;DHT22;18679;45.190;5.722;2023-06-19T17:59:46;33.00;32.20
32173;DHT22;18679;45.190;5.722;2023-06-19T18:02:49;33.00;32.20
32173;DHT22;18679;45.190;5.722;2023-06-19T18:05:50;32.90;32.10
32173;DHT22;18679;45.190;5.722;2023-06-19T18:08:51;32.90;32.40
32173;DHT22;18679;45.190;5.722;2023-06-19T18:11:52;32.90;32.50
32173;DHT22;18679;45.190;5.722;2023-06-19T18:14:53;32.70;32.50
32173;DHT22;18679;45.190;5.722;2023-06-19T18:17:55;32.60;32.80
32173;DHT22;18679;45.190;5.722;2023-06-19T18:20:55;32.50;32.90
32173;DHT22;18679;45.190;5.722;2023-06-19T18:23:56;32.40;33.10
32173;DHT22;18679;45.190;5.722;2023-06-19T18:26:57;32.30;33.20
32173;DHT22;18679;45.190;5.722;2023-06-19T18:29:58;32.20;33.30
32173;DHT22;18679;45.190;5.722;2023-06-19T18:32:59;32.20;33.30
32173;DHT22;18679;45.190;5.722;2023-06-19T18:36:00;32.20;33.40
32173;DHT22;18679;45.190;5.722;2023-06-19T18:39:02;32.10;33.40
32173;DHT22;18679;45.190;5.722;2023-06-19T18:42:04;32.10;33.40
32173;DHT22;18679;45.190;5.722;2023-06-19T18:45:05;32.00;33.40
32173;DHT22;18679;45.190;5.722;2023-06-19T18:48:06;32.00;33.70
32173;DHT22;18679;45.190;5.722;2023-06-19T18:51:07;31.90;34.60
32173;DHT22;18679;45.190;5.722;2023-06-19T18:54:08;31.80;33.80
32173;DHT22;18679;45.190;5.722;2023-06-19T18:57:09;31.70;33.70
32173;DHT22;18679;45.190;5.722;2023-06-19T19:00:11;31.70;33.60
32173;DHT22;18679;45.190;5.722;2023-06-19T19:03:12;31.60;33.60
32173;DHT22;18679;45.190;5.722;2023-06-19T19:06:13;31.60;33.60
32173;DHT22;18679;45.190;5.722;2023-06-19T19:09:16;31.60;33.60